CheckWX is a tool to help pilots better visualize weather data.  It is not intended as a substitute for an official pre-flight weather briefing.

13:04:53 UTC

54J METAR
Defuniak Springs Airport
Defuniak Springs, Florida, USA
Current

10 mins ago

K54J 181255Z AUTO 03004KT 10SM VCTS BKN005 OVC024 25/23 A3000 RMK AO2 LTG DSNT S AND SW T02510234
Observed
Aug-18 @ 12:55 UTC
Wind
  • 030° at 4 KTS
Visibility
10 SM
Flight Rules
IFR
Conditions
Area Thunderstorm
Cloud Levels
  • Broken at 500' AGL
  • Overcast at 2,400' AGL
Temperature
25°C / 77°F
Dewpoint
23°C / 73°F
Humidity
89%
Altimeter
30" Hg
Pressure
1015.92 hPa
Previous

50 mins ago

K54J 181215Z AUTO 01003KT 10SM OVC003 24/23 A2999 RMK AO2 LTG DSNT SE THRU SW T02400232
Observed
Aug-18 @ 12:15 UTC
Wind
  • 010° at 3 KTS
Visibility
10 SM
Flight Rules
LIFR
Cloud Levels
  • Overcast at 300' AGL
Temperature
24°C / 75°F
Dewpoint
23°C / 73°F
Humidity
94%
Altimeter
29.99" Hg
Pressure
1015.62 hPa
Previous

5 hours ago

K54J 180815Z AUTO 05006KT 3SM BR OVC003 24/23 A2995 RMK AO2 T02350230
Observed
Aug-18 @ 08:15 UTC
Wind
  • 050° at 6 KTS
Visibility
3 SM
Flight Rules
LIFR
Conditions
Mist
Cloud Levels
  • Overcast at 300' AGL
Temperature
24°C / 75°F
Dewpoint
23°C / 73°F
Humidity
94%
Altimeter
29.95" Hg
Pressure
1014.22 hPa